Time;durP1;ratioP1;P1;durP2;ratioP2;P2;SDS_P1;SDS_P2;PMS_P1;PMS_P2;Temp;Humidity;BMP_temperature;BMP_pressure;BME280_temperature;BME280_humidity;BME280_pressure;Samples;Min_cycle;Max_cycle;Signal;HPM_P1;HPM_P2
2022/06/14 00:01:48;;;;;;;3.08;1.35;;;14.10;65.90;;;;;;5073527;28;20098;-89
2022/06/14 00:04:15;;;;;;;4.10;1.73;;;14.10;66.00;;;;;;5073525;28;20045;-89
2022/06/14 00:06:42;;;;;;;3.47;1.58;;;14.00;66.00;;;;;;5074454;28;20076;-89
2022/06/14 00:09:09;;;;;;;3.70;1.67;;;14.00;66.00;;;;;;5065512;28;20094;-89
2022/06/14 00:11:38;;;;;;;4.30;1.95;;;14.00;66.10;;;;;;5072643;28;20501;-90
2022/06/14 00:14:09;;;;;;;4.65;1.90;;;14.00;66.10;;;;;;5072925;28;20574;-89
2022/06/14 00:16:37;;;;;;;5.13;1.80;;;13.90;66.10;;;;;;5073753;28;20052;-91
2022/06/14 00:19:05;;;;;;;3.88;1.75;;;13.90;66.20;;;;;;5072480;28;20055;-91
2022/06/14 00:21:34;;;;;;;3.90;1.70;;;13.90;66.30;;;;;;5073930;28;20121;-90
2022/06/14 00:24:01;;;;;;;4.32;1.60;;;13.90;66.30;;;;;;5073277;28;20048;-91
2022/06/14 00:26:28;;;;;;;4.30;1.80;;;13.80;66.40;;;;;;5068745;28;20043;-91
2022/06/14 00:28:55;;;;;;;3.85;1.70;;;13.80;66.40;;;;;;5072811;28;20751;-91
2022/06/14 00:31:25;;;;;;;5.95;1.70;;;13.70;66.40;;;;;;5073554;28;20048;-90
2022/06/14 00:33:52;;;;;;;5.18;1.67;;;13.70;66.50;;;;;;5073371;28;20052;-91
2022/06/14 00:36:28;;;;;;;3.00;1.35;;;13.70;66.50;;;;;;5073598;28;20439;-93
2022/06/14 00:39:00;;;;;;;3.45;1.50;;;13.70;66.60;;;;;;5073194;28;20132;-89
2022/06/14 00:41:30;;;;;;;3.58;1.77;;;13.60;66.60;;;;;;5073321;28;20459;-89
2022/06/14 00:43:57;;;;;;;3.65;1.67;;;13.60;66.70;;;;;;5072471;28;20456;-90
2022/06/14 00:46:33;;;;;;;4.32;1.73;;;13.60;66.70;;;;;;5073058;28;20523;-89
2022/06/14 00:49:11;;;;;;;3.95;1.73;;;13.50;66.70;;;;;;5072846;28;20548;-90
2022/06/14 00:51:51;;;;;;;3.35;1.50;;;13.50;66.80;;;;;;5073468;28;20048;-89
2022/06/14 00:54:26;;;;;;;4.22;1.67;;;13.50;66.80;;;;;;5072590;28;20090;-90
2022/06/14 00:57:02;;;;;;;3.45;1.35;;;13.40;66.90;;;;;;5072934;28;20122;-90
2022/06/14 00:59:32;;;;;;;3.90;1.67;;;13.40;66.90;;;;;;5072219;28;20459;-90
2022/06/14 01:02:23;;;;;;;3.92;1.60;;;13.40;66.90;;;;;;5072899;28;20386;-89
2022/06/14 01:04:51;;;;;;;3.83;1.63;;;13.40;67.00;;;;;;5071805;28;20474;-90
2022/06/14 01:07:33;;;;;;;4.20;1.73;;;13.40;67.00;;;;;;5078278;28;20043;-89
2022/06/14 01:10:08;;;;;;;3.67;1.65;;;13.40;67.10;;;;;;5074367;28;20044;-90
2022/06/14 01:12:38;;;;;;;4.53;1.63;;;13.30;67.20;;;;;;5072595;28;20052;-90
2022/06/14 01:15:13;;;;;;;3.67;1.50;;;13.30;67.20;;;;;;5057518;28;20045;-89
2022/06/14 01:17:45;;;;;;;4.75;1.60;;;13.20;67.20;;;;;;5068738;28;20098;-90
2022/06/14 01:20:15;;;;;;;3.35;1.58;;;13.20;67.20;;;;;;5073019;28;20098;-90
2022/06/14 01:22:42;;;;;;;4.25;1.83;;;13.10;67.30;;;;;;5071427;28;20052;-90
2022/06/14 01:25:10;;;;;;;5.72;1.60;;;13.20;67.30;;;;;;5072544;28;20566;-90
2022/06/14 01:27:39;;;;;;;4.78;2.10;;;13.10;67.30;;;;;;5072287;28;20045;-89
2022/06/14 01:30:22;;;;;;;3.33;1.65;;;13.10;67.40;;;;;;5072653;28;20052;-89
2022/06/14 01:32:58;;;;;;;4.78;1.60;;;13.10;67.40;;;;;;5071177;28;20044;-89
2022/06/14 01:35:27;;;;;;;4.43;1.52;;;13.00;67.50;;;;;;5072337;28;20045;-89
2022/06/14 01:37:57;;;;;;;3.53;1.50;;;13.00;67.50;;;;;;5063162;28;20509;-89
2022/06/14 01:40:47;;;;;;;6.03;1.90;;;13.00;67.60;;;;;;5072433;28;20513;-90
2022/06/14 01:43:31;;;;;;;4.65;1.58;;;13.00;67.60;;;;;;5072139;28;20084;-90
2022/06/14 01:46:26;;;;;;;3.20;1.60;;;12.90;67.60;;;;;;5071368;28;20080;-91
2022/06/14 01:52:27;;;;;;;3.38;1.40;;;12.90;67.70;;;;;;5071041;28;20048;-90
2022/06/14 01:55:18;;;;;;;4.18;1.65;;;12.80;67.80;;;;;;5054170;28;20090;-90
2022/06/14 01:58:13;;;;;;;4.70;1.65;;;12.80;67.80;;;;;;5071918;28;20094;-90
2022/06/14 02:01:02;;;;;;;8.23;1.60;;;12.80;67.90;;;;;;5050684;28;20079;-90
2022/06/14 02:06:29;;;;;;;4.72;1.90;;;12.70;68.00;;;;;;5052633;28;20479;-89
2022/06/14 02:09:06;;;;;;;3.30;1.58;;;12.70;68.10;;;;;;5070702;28;20052;-90
2022/06/14 02:11:35;;;;;;;3.85;1.40;;;12.70;68.10;;;;;;5072571;28;20041;-89
2022/06/14 02:14:47;;;;;;;5.78;1.85;;;12.60;68.10;;;;;;5076558;28;20052;-89
2022/06/14 02:17:29;;;;;;;6.75;1.70;;;12.70;68.20;;;;;;5050890;28;20050;-91
2022/06/14 02:20:06;;;;;;;4.63;1.50;;;12.60;68.20;;;;;;5034324;28;20049;-90
2022/06/14 02:22:39;;;;;;;3.50;1.50;;;12.50;68.30;;;;;;5033984;28;20108;-90
2022/06/14 02:25:12;;;;;;;4.03;1.60;;;12.50;68.30;;;;;;5050223;28;20514;-90
2022/06/14 02:27:56;;;;;;;3.83;1.70;;;12.50;68.30;;;;;;4998205;28;20109;-91
2022/06/14 02:30:30;;;;;;;3.72;1.75;;;12.40;68.40;;;;;;5049464;28;20126;-91
2022/06/14 02:33:05;;;;;;;5.18;1.67;;;12.50;68.40;;;;;;5041554;28;20046;-91
2022/06/14 02:35:45;;;;;;;4.88;1.80;;;12.40;68.40;;;;;;5040570;28;20110;-91
2022/06/14 02:38:16;;;;;;;3.75;1.70;;;12.40;68.50;;;;;;5042087;28;20049;-91
2022/06/14 02:40:53;;;;;;;4.78;1.90;;;12.40;68.50;;;;;;5037367;28;20387;-90
2022/06/14 02:43:39;;;;;;;4.38;1.70;;;12.40;68.50;;;;;;5033522;28;20041;-90
2022/06/14 02:46:37;;;;;;;3.43;1.53;;;12.40;68.60;;;;;;5018305;28;20045;-91
2022/06/14 02:49:24;;;;;;;4.25;1.95;;;12.30;68.60;;;;;;5058069;28;20302;-91
2022/06/14 02:52:17;;;;;;;5.75;1.80;;;12.30;68.60;;;;;;5075102;28;20390;-91
2022/06/14 02:54:53;;;;;;;4.38;1.60;;;12.30;68.60;;;;;;5066994;28;20087;-89
2022/06/14 02:57:33;;;;;;;4.57;1.70;;;12.20;68.70;;;;;;5068705;28;20052;-90
2022/06/14 03:00:15;;;;;;;3.60;1.42;;;12.20;68.70;;;;;;5089105;28;20070;-90
2022/06/14 03:02:50;;;;;;;4.30;1.83;;;12.20;68.70;;;;;;5078696;28;20161;-89
2022/06/14 03:05:24;;;;;;;4.43;1.70;;;12.10;68.80;;;;;;5077011;28;20040;-90
2022/06/14 03:08:13;;;;;;;;;;;12.10;68.80;;;;;;5075423;28;20053;-89
2022/06/14 03:11:29;;;;;;;5.45;1.90;;;12.10;68.80;;;;;;5075067;28;19920;-90
2022/06/14 03:14:05;;;;;;;6.90;2.00;;;12.00;68.80;;;;;;5066429;28;20118;-90
2022/06/14 03:16:58;;;;;;;3.95;1.77;;;12.00;68.90;;;;;;5073848;28;20048;-91
2022/06/14 03:19:28;;;;;;;5.00;2.00;;;12.00;68.90;;;;;;5060765;28;20102;-90
2022/06/14 03:22:06;;;;;;;4.05;1.83;;;11.90;68.90;;;;;;5074191;28;20105;-90
2022/06/14 03:24:42;;;;;;;5.13;2.03;;;11.90;69.00;;;;;;5074291;28;20067;-90
2022/06/14 03:27:50;;;;;;;4.03;1.83;;;11.90;69.00;;;;;;5070758;28;20493;-90
2022/06/14 03:30:36;;;;;;;3.78;1.50;;;11.90;69.00;;;;;;5071702;28;20055;-90
2022/06/14 03:33:28;;;;;;;4.40;1.65;;;11.90;69.00;;;;;;5074510;28;20558;-91
2022/06/14 03:35:55;;;;;;;3.83;1.60;;;11.90;69.10;;;;;;5074787;28;20117;-90
2022/06/14 03:38:31;;;;;;;6.60;2.30;;;11.80;69.10;;;;;;5074340;28;20102;-91
2022/06/14 03:40:59;;;;;;;3.60;1.90;;;11.80;69.10;;;;;;5074066;28;20102;-90
2022/06/14 03:43:26;;;;;;;3.20;1.63;;;11.80;69.10;;;;;;5073883;28;20106;-89
2022/06/14 03:46:03;;;;;;;4.25;1.75;;;11.70;69.10;;;;;;5073423;28;20134;-89
2022/06/14 03:48:34;;;;;;;5.50;1.60;;;11.70;69.10;;;;;;5074628;28;20052;-89
2022/06/14 03:51:19;;;;;;;5.38;1.75;;;11.70;69.10;;;;;;5074093;28;20519;-90
2022/06/14 03:54:17;;;;;;;3.90;1.88;;;11.60;69.20;;;;;;5073969;28;20110;-91
2022/06/14 03:57:04;;;;;;;5.13;1.77;;;11.60;69.20;;;;;;5074026;28;20501;-90
2022/06/14 03:59:47;;;;;;;4.88;1.60;;;11.60;69.20;;;;;;5074274;28;20044;-89
2022/06/14 04:02:53;;;;;;;4.20;1.80;;;11.60;69.30;;;;;;5068715;28;20044;-91
2022/06/14 04:05:29;;;;;;;5.40;1.90;;;11.50;69.30;;;;;;5074032;28;20098;-90
2022/06/14 04:08:21;;;;;;;3.00;1.63;;;11.50;69.40;;;;;;5073767;28;20052;-92
2022/06/14 04:11:09;;;;;;;5.05;1.80;;;11.50;69.40;;;;;;5072821;28;20443;-90
2022/06/14 04:13:55;;;;;;;5.55;1.80;;;11.50;69.50;;;;;;5073768;28;20056;-90
2022/06/14 04:16:28;;;;;;;6.85;2.10;;;11.40;69.50;;;;;;5057252;28;20550;-89
2022/06/14 04:19:10;;;;;;;4.25;1.83;;;11.40;69.50;;;;;;5073743;28;20110;-90
2022/06/14 04:21:40;;;;;;;4.15;1.83;;;11.40;69.50;;;;;;5073064;28;20101;-89
2022/06/14 04:24:18;;;;;;;5.75;1.70;;;11.40;69.60;;;;;;5072695;28;20056;-90
2022/06/14 04:26:47;;;;;;;3.40;1.70;;;11.40;69.60;;;;;;5073222;28;20048;-91
2022/06/14 04:29:33;;;;;;;4.97;1.73;;;11.40;69.60;;;;;;5072883;28;20049;-90
2022/06/14 04:32:29;;;;;;;4.70;1.70;;;11.40;69.70;;;;;;5073114;28;20459;-90
2022/06/14 04:35:06;;;;;;;3.55;1.50;;;11.30;69.70;;;;;;5064873;28;20044;-90
2022/06/14 04:37:39;;;;;;;3.58;2.05;;;11.30;69.80;;;;;;5073012;28;20513;-91
2022/06/14 04:40:29;;;;;;;3.50;1.75;;;11.30;69.80;;;;;;5072753;28;20121;-90
2022/06/14 04:43:02;;;;;;;4.00;1.70;;;11.30;69.90;;;;;;5071123;28;20051;-91
2022/06/14 04:45:41;;;;;;;4.80;1.80;;;11.30;69.90;;;;;;5073120;28;20048;-91
2022/06/14 04:48:18;;;;;;;5.40;1.65;;;11.30;70.00;;;;;;5073239;28;20087;-91
2022/06/14 04:50:52;;;;;;;4.78;2.00;;;11.30;70.00;;;;;;5072369;28;20044;-91
2022/06/14 04:53:49;;;;;;;5.07;1.92;;;11.30;70.10;;;;;;5073283;28;20049;-91
2022/06/14 04:56:23;;;;;;;4.18;1.63;;;11.30;70.20;;;;;;5072055;28;20048;-90
2022/06/14 04:58:59;;;;;;;4.82;1.60;;;11.30;70.20;;;;;;5072378;28;20055;-90
2022/06/14 05:01:31;;;;;;;5.15;1.73;;;11.30;70.30;;;;;;5072392;28;20048;-89
2022/06/14 05:04:13;;;;;;;3.42;1.60;;;11.30;70.40;;;;;;5071960;28;20048;-89
2022/06/14 05:06:52;;;;;;;3.85;1.70;;;11.30;70.50;;;;;;5065589;28;20067;-87
2022/06/14 05:09:22;;;;;;;;;;;11.30;70.60;;;;;;5071016;28;20110;-87
2022/06/14 05:12:10;;;;;;;2.83;1.50;;;11.40;70.60;;;;;;5071197;28;19927;-89
2022/06/14 05:14:44;;;;;;;6.03;2.08;;;11.40;70.70;;;;;;5071655;28;20048;-89
2022/06/14 05:17:19;;;;;;;4.55;2.03;;;11.40;70.80;;;;;;5071167;28;20044;-90
2022/06/14 05:19:54;;;;;;;5.45;1.90;;;11.40;70.90;;;;;;5072035;28;20591;-90
2022/06/14 05:22:33;;;;;;;5.93;1.50;;;11.40;70.90;;;;;;5072365;28;20117;-89
2022/06/14 05:25:01;;;;;;;4.72;1.73;;;11.40;71.00;;;;;;5072218;28;20056;-90
2022/06/14 05:27:43;;;;;;;4.32;1.80;;;11.40;71.00;;;;;;5070721;28;20412;-92
2022/06/14 05:30:16;;;;;;;4.47;1.80;;;11.50;71.10;;;;;;5066918;28;20463;-91
2022/06/14 05:33:01;;;;;;;4.18;1.92;;;11.50;71.10;;;;;;5067942;28;20524;-90
2022/06/14 05:35:38;;;;;;;4.15;1.73;;;11.60;71.20;;;;;;5070441;28;20098;-90
2022/06/14 05:38:08;;;;;;;4.35;1.60;;;11.60;71.20;;;;;;5070505;28;20423;-88
2022/06/14 05:40:48;;;;;;;6.70;1.92;;;11.70;71.20;;;;;;5072716;28;20106;-91
2022/06/14 05:43:42;;;;;;;3.63;1.52;;;11.70;71.20;;;;;;5072013;28;20044;-90
2022/06/14 05:46:42;;;;;;;;;;;11.80;71.20;;;;;;5071042;28;20048;-90
2022/06/14 05:49:22;;;;;;;4.15;1.70;;;11.80;71.20;;;;;;5034462;28;19975;-90
2022/06/14 05:51:52;;;;;;;3.88;1.70;;;11.90;71.20;;;;;;5034880;28;20049;-90
2022/06/14 05:54:41;;;;;;;4.00;1.80;;;11.90;71.10;;;;;;5018802;28;20521;-91
2022/06/14 05:57:11;;;;;;;4.60;1.70;;;12.00;71.10;;;;;;5035362;28;20119;-91
2022/06/14 05:59:49;;;;;;;4.22;1.75;;;12.10;71.10;;;;;;5034204;28;20462;-91
2022/06/14 06:02:36;;;;;;;6.20;2.10;;;12.10;71.10;;;;;;5035021;28;20107;-92
2022/06/14 06:05:06;;;;;;;4.95;2.00;;;12.30;71.00;;;;;;5026014;28;20506;-91
2022/06/14 06:07:38;;;;;;;4.53;1.73;;;12.30;70.90;;;;;;5034457;28;20051;-88
2022/06/14 06:10:10;;;;;;;5.97;2.22;;;12.40;70.90;;;;;;5033296;28;20092;-90
2022/06/14 06:12:44;;;;;;;;;;;12.40;70.80;;;;;;5018091;28;20537;-91
2022/06/14 06:15:20;;;;;;;5.15;2.00;;;12.60;70.70;;;;;;5033908;28;20424;-89
2022/06/14 06:17:57;;;;;;;5.05;2.00;;;12.60;70.70;;;;;;5033527;28;20061;-89
2022/06/14 06:20:39;;;;;;;6.45;2.63;;;12.70;70.60;;;;;;5034017;28;20054;-93
2022/06/14 06:23:09;;;;;;;5.97;2.30;;;12.80;70.60;;;;;;5033871;28;20060;-90
2022/06/14 06:25:41;;;;;;;6.60;2.42;;;12.90;70.50;;;;;;5065370;28;20067;-89
2022/06/14 06:28:11;;;;;;;4.68;2.00;;;12.90;70.40;;;;;;5070418;28;20041;-90
2022/06/14 06:31:16;;;;;;;4.38;2.00;;;13.10;70.40;;;;;;5055362;28;20071;-90
2022/06/14 06:33:51;;;;;;;5.78;2.10;;;13.20;70.30;;;;;;5033318;28;20057;-91
2022/06/14 06:36:30;;;;;;;6.15;2.42;;;13.20;70.20;;;;;;5033124;28;20100;-90
2022/06/14 06:39:38;;;;;;;9.23;2.10;;;13.40;70.10;;;;;;5032383;28;20095;-90
2022/06/14 06:42:12;;;;;;;7.97;2.50;;;13.40;70.00;;;;;;5031715;28;20060;-92
2022/06/14 06:44:46;;;;;;;8.32;2.60;;;13.50;69.90;;;;;;5042920;28;20497;-90
2022/06/14 06:47:17;;;;;;;5.03;2.20;;;13.60;69.80;;;;;;5040767;28;20100;-91
2022/06/14 06:49:53;;;;;;;8.85;3.00;;;13.70;69.70;;;;;;5032582;28;20064;-91
2022/06/14 06:52:35;;;;;;;7.05;2.50;;;13.80;69.70;;;;;;5033722;28;20057;-92
2022/06/14 06:55:09;;;;;;;5.93;2.28;;;13.90;69.60;;;;;;5017285;28;20049;-91
2022/06/14 06:57:38;;;;;;;;;;;13.90;69.50;;;;;;5032982;28;20095;-90
2022/06/14 07:00:18;;;;;;;6.70;2.60;;;14.00;69.40;;;;;;5016473;28;19920;-89
2022/06/14 07:02:58;;;;;;;7.45;2.55;;;14.10;69.40;;;;;;5032623;28;20045;-90
2022/06/14 07:05:25;;;;;;;6.75;2.58;;;14.20;69.30;;;;;;5032892;28;20045;-90
2022/06/14 07:08:01;;;;;;;6.68;2.10;;;14.30;69.20;;;;;;5032585;28;20045;-91
2022/06/14 07:11:03;;;;;;;6.35;2.10;;;14.40;69.10;;;;;;5052376;28;20052;-88
2022/06/14 07:13:58;;;;;;;5.50;2.53;;;14.40;69.00;;;;;;5056782;28;20044;-89
2022/06/14 07:16:30;;;;;;;9.40;2.28;;;14.50;68.80;;;;;;5063406;28;20500;-88
2022/06/14 07:19:19;;;;;;;6.90;2.08;;;14.60;68.70;;;;;;5072686;28;20417;-88
2022/06/14 07:22:23;;;;;;;6.32;2.40;;;14.70;68.60;;;;;;5072491;28;20048;-89
2022/06/14 07:24:59;;;;;;;6.28;2.47;;;14.80;68.40;;;;;;5063967;28;20055;-89
2022/06/14 07:27:48;;;;;;;8.18;2.50;;;14.90;68.20;;;;;;5069441;28;20044;-88
2022/06/14 07:30:21;;;;;;;9.20;2.35;;;15.00;68.10;;;;;;5073555;28;20055;-89
2022/06/14 07:32:52;;;;;;;8.63;2.28;;;15.00;67.90;;;;;;5065813;28;20437;-89
2022/06/14 07:35:45;;;;;;;8.23;2.47;;;15.20;67.80;;;;;;5070168;28;20068;-89
2022/06/14 07:38:40;;;;;;;8.27;2.53;;;15.30;67.70;;;;;;5061872;28;20100;-90
2022/06/14 07:41:16;;;;;;;6.80;2.10;;;15.30;67.60;;;;;;5062547;28;20524;-89
2022/06/14 07:44:07;;;;;;;7.10;2.10;;;15.40;67.40;;;;;;5071491;28;20044;-89
2022/06/14 07:46:40;;;;;;;10.38;2.05;;;15.50;67.30;;;;;;5058283;28;20094;-89
2022/06/14 07:49:49;;;;;;;6.35;2.38;;;15.60;67.10;;;;;;5073822;28;20044;-90
2022/06/14 07:52:42;;;;;;;6.35;2.05;;;15.70;67.00;;;;;;5051402;28;20041;-90
2022/06/14 07:55:25;;;;;;;7.13;2.10;;;15.80;66.80;;;;;;5069729;28;20465;-90
2022/06/14 07:58:00;;;;;;;7.68;2.15;;;15.90;66.70;;;;;;5069879;28;20113;-90
2022/06/14 08:03:28;;;;;;;5.53;2.13;;;16.20;66.30;;;;;;5066214;28;20052;-88
2022/06/14 08:05:57;;;;;;;6.20;2.05;;;16.30;66.20;;;;;;5070641;28;20558;-89
2022/06/14 08:08:31;;;;;;;7.57;1.90;;;16.40;66.00;;;;;;5070898;28;20488;-89
2022/06/14 08:11:08;;;;;;;4.75;1.95;;;16.40;65.80;;;;;;5067423;28;20582;-89
2022/06/14 08:13:44;;;;;;;6.85;2.05;;;16.50;65.60;;;;;;5068068;28;20044;-88
2022/06/14 08:16:12;;;;;;;5.90;2.22;;;16.60;65.40;;;;;;5069629;28;20052;-89
2022/06/14 08:18:48;;;;;;;8.80;2.03;;;16.80;65.10;;;;;;5069010;28;20045;-89
2022/06/14 08:21:40;;;;;;;8.70;1.85;;;16.80;64.90;;;;;;5054135;28;20049;-90
2022/06/14 08:24:23;;;;;;;9.15;1.90;;;16.90;64.60;;;;;;5070716;28;20432;-89
2022/06/14 08:27:01;;;;;;;6.57;1.63;;;17.00;64.40;;;;;;5071925;28;20052;-90
2022/06/14 08:29:54;;;;;;;9.30;2.05;;;17.20;64.20;;;;;;5064071;28;20045;-87
2022/06/14 08:32:55;;;;;;;5.50;1.90;;;17.30;63.90;;;;;;5068660;28;20101;-89
2022/06/14 08:35:48;;;;;;;6.78;2.10;;;17.40;63.60;;;;;;5068909;28;20048;-89
2022/06/14 08:38:29;;;;;;;7.22;2.03;;;17.40;63.30;;;;;;5068819;28;20045;-88
2022/06/14 08:41:14;;;;;;;6.50;2.00;;;17.60;63.00;;;;;;5068679;28;20040;-88
2022/06/14 08:43:52;;;;;;;8.77;2.13;;;17.60;62.70;;;;;;5067808;28;20052;-89
2022/06/14 08:46:34;;;;;;;6.07;1.80;;;17.80;62.50;;;;;;5053260;28;20049;-89
2022/06/14 08:49:08;;;;;;;7.22;1.85;;;17.90;62.20;;;;;;5069739;28;20500;-90
2022/06/14 08:52:01;;;;;;;5.97;1.55;;;17.90;62.00;;;;;;5071216;28;20060;-89
2022/06/14 08:54:56;;;;;;;7.35;2.10;;;18.00;61.60;;;;;;5028777;28;20469;-90
2022/06/14 08:57:56;;;;;;;7.05;2.03;;;18.10;61.30;;;;;;5030122;28;20050;-88
2022/06/14 09:00:39;;;;;;;5.22;1.48;;;18.10;61.10;;;;;;5030212;28;20057;-88
2022/06/14 09:03:43;;;;;;;7.57;1.65;;;18.20;60.80;;;;;;5029769;28;20091;-89
2022/06/14 09:06:29;;;;;;;5.95;1.70;;;18.30;60.60;;;;;;5029957;28;20099;-89
2022/06/14 09:09:10;;;;;;;5.15;1.50;;;18.40;60.40;;;;;;5016796;28;20107;-88
2022/06/14 09:12:10;;;;;;;6.60;1.92;;;18.40;60.20;;;;;;5028478;28;20046;-89
2022/06/14 09:14:37;;;;;;;6.25;1.70;;;18.40;60.00;;;;;;5029287;28;20049;-87
2022/06/14 09:17:45;;;;;;;5.22;1.50;;;18.50;59.80;;;;;;5028721;28;20691;-89
2022/06/14 09:20:51;;;;;;;5.45;1.77;;;18.60;59.60;;;;;;5028431;28;20038;-87
2022/06/14 09:23:29;;;;;;;5.57;1.73;;;18.70;59.30;;;;;;5028909;28;20507;-89
2022/06/14 09:26:07;;;;;;;6.07;1.65;;;18.70;59.10;;;;;;5028733;28;20071;-89
2022/06/14 09:28:46;;;;;;;6.15;1.80;;;18.80;58.90;;;;;;5028601;28;20057;-87
2022/06/14 09:31:31;;;;;;;6.00;1.60;;;18.80;58.80;;;;;;5038321;28;20045;-89
2022/06/14 09:34:13;;;;;;;5.85;1.70;;;18.90;58.50;;;;;;5050609;28;20049;-89
2022/06/14 09:37:05;;;;;;;7.50;1.77;;;19.00;58.40;;;;;;5047752;28;20455;-88
2022/06/14 09:40:07;;;;;;;6.50;2.03;;;19.00;58.20;;;;;;5050471;28;20136;-89
2022/06/14 09:42:42;;;;;;;6.43;2.03;;;19.10;58.00;;;;;;5051184;28;20048;-88
2022/06/14 09:45:31;;;;;;;5.50;1.73;;;19.20;57.80;;;;;;5047021;28;20061;-89
2022/06/14 09:48:07;;;;;;;5.25;1.48;;;19.30;57.60;;;;;;5047638;28;20049;-88
2022/06/14 09:50:37;;;;;;;4.95;1.75;;;19.30;57.50;;;;;;5047559;28;20053;-87
2022/06/14 09:53:19;;;;;;;6.82;1.45;;;19.40;57.30;;;;;;5047163;28;20041;-87
2022/06/14 09:56:07;;;;;;;6.18;1.85;;;19.40;57.00;;;;;;5046173;28;20045;-88
2022/06/14 09:58:49;;;;;;;7.25;1.38;;;19.50;56.80;;;;;;5047955;28;20819;-89
2022/06/14 10:01:22;;;;;;;6.35;1.75;;;19.60;56.60;;;;;;5033677;28;20567;-88
2022/06/14 10:04:11;;;;;;;4.60;1.58;;;19.60;56.50;;;;;;5050150;28;20071;-88
2022/06/14 10:06:48;;;;;;;6.32;1.65;;;19.70;56.30;;;;;;5047809;28;20140;-88
2022/06/14 10:09:29;;;;;;;5.05;1.58;;;19.70;56.20;;;;;;5049997;28;20049;-90
2022/06/14 10:12:18;;;;;;;6.38;1.60;;;19.80;56.00;;;;;;5047558;28;20049;-87
2022/06/14 10:14:54;;;;;;;4.20;1.30;;;19.90;55.90;;;;;;5047336;28;20551;-88
2022/06/14 10:17:40;;;;;;;5.20;1.35;;;19.90;55.70;;;;;;5049014;28;20421;-88
2022/06/14 10:20:19;;;;;;;7.35;1.80;;;20.00;55.60;;;;;;5047236;28;20049;-88
2022/06/14 10:22:51;;;;;;;7.22;2.03;;;20.00;55.50;;;;;;5046392;28;20532;-87
2022/06/14 10:25:31;;;;;;;5.35;1.75;;;20.10;55.40;;;;;;5047251;28;20061;-87
2022/06/14 10:28:22;;;;;;;6.90;1.88;;;20.10;55.20;;;;;;5049374;28;20049;-87
2022/06/14 10:31:05;;;;;;;5.35;1.50;;;20.20;55.10;;;;;;5061219;28;20048;-86
2022/06/14 10:34:01;;;;;;;4.32;1.35;;;20.20;54.90;;;;;;5072683;28;20057;-87
2022/06/14 10:36:48;;;;;;;4.30;1.48;;;20.30;54.80;;;;;;5073686;28;20061;-89
2022/06/14 10:39:20;;;;;;;7.13;1.50;;;20.30;54.60;;;;;;5083720;28;20049;-89
2022/06/14 10:41:53;;;;;;;6.55;1.80;;;20.40;54.50;;;;;;5073392;28;20536;-89
2022/06/14 10:44:29;;;;;;;7.55;1.80;;;20.40;54.40;;;;;;5065027;28;20444;-91
2022/06/14 10:47:24;;;;;;;4.75;1.60;;;20.50;54.20;;;;;;5070078;28;20041;-89
2022/06/14 10:50:10;;;;;;;10.88;1.95;;;20.50;54.10;;;;;;5073397;28;20107;-89
2022/06/14 10:52:46;;;;;;;4.75;1.58;;;20.60;53.90;;;;;;5069349;28;20044;-90
2022/06/14 10:55:37;;;;;;;5.15;1.65;;;20.60;53.70;;;;;;5056146;28;20439;-90
2022/06/14 10:58:07;;;;;;;4.57;1.60;;;20.70;53.60;;;;;;5072173;28;20578;-90
2022/06/14 11:00:37;;;;;;;8.18;1.70;;;20.70;53.40;;;;;;5073944;28;20064;-90
2022/06/14 11:03:26;;;;;;;5.15;1.58;;;20.80;53.30;;;;;;5070611;28;20048;-88
2022/06/14 11:06:14;;;;;;;6.43;1.60;;;20.80;53.10;;;;;;5071642;28;20049;-89
2022/06/14 11:08:49;;;;;;;5.40;1.50;;;20.90;53.00;;;;;;5070632;28;20048;-88
2022/06/14 11:11:30;;;;;;;8.18;1.70;;;20.90;52.90;;;;;;5070419;28;20044;-89
2022/06/14 11:14:12;;;;;;;9.13;1.60;;;20.90;52.80;;;;;;5072067;28;20044;-91
2022/06/14 11:17:16;;;;;;;6.50;1.60;;;21.10;52.70;;;;;;5070134;28;20049;-88
2022/06/14 11:20:06;;;;;;;6.37;1.60;;;21.10;52.50;;;;;;5059740;28;20052;-89
2022/06/14 11:22:39;;;;;;;7.13;1.92;;;21.20;52.30;;;;;;5056558;28;20457;-89
2022/06/14 11:25:25;;;;;;;;;;;21.30;52.30;;;;;;5070885;28;20056;-89
2022/06/14 11:28:13;;;;;;;8.95;1.95;;;21.30;52.30;;;;;;5070141;28;20384;-89
2022/06/14 11:30:49;;;;;;;5.40;1.40;;;21.40;52.20;;;;;;5070383;28;20512;-90
2022/06/14 11:33:50;;;;;;;4.70;1.70;;;21.40;52.10;;;;;;5072786;28;20045;-89
2022/06/14 11:36:38;;;;;;;5.47;1.52;;;21.50;51.90;;;;;;5072686;28;20052;-90
2022/06/14 11:39:04;;;;;;;5.95;1.50;;;21.50;51.80;;;;;;5069863;28;20047;-89
2022/06/14 11:41:44;;;;;;;6.07;1.80;;;21.60;51.70;;;;;;5069569;28;20123;-89
2022/06/14 11:44:41;;;;;;;5.90;1.50;;;21.70;51.60;;;;;;5069247;28;20515;-88
2022/06/14 11:47:33;;;;;;;4.63;1.58;;;21.70;51.50;;;;;;5071161;28;20052;-89
2022/06/14 11:50:28;;;;;;;5.88;1.77;;;21.80;51.50;;;;;;5069339;28;20053;-89
2022/06/14 11:53:25;;;;;;;6.32;1.85;;;21.90;51.40;;;;;;5064994;28;20061;-90
2022/06/14 11:56:02;;;;;;;4.20;1.30;;;21.90;51.20;;;;;;5072147;28;20078;-89
2022/06/14 11:58:47;;;;;;;4.03;1.75;;;21.90;51.10;;;;;;5072416;28;20501;-89
2022/06/14 12:01:35;;;;;;;6.13;1.50;;;21.90;51.00;;;;;;5053791;28;20421;-89
2022/06/14 12:04:18;;;;;;;5.20;1.70;;;21.90;50.90;;;;;;5071331;28;20053;-90
2022/06/14 12:06:50;;;;;;;4.53;1.40;;;21.90;50.80;;;;;;5069056;28;20052;-89
2022/06/14 12:09:50;;;;;;;5.30;1.30;;;22.00;50.80;;;;;;5071280;28;20128;-89
2022/06/14 12:12:37;;;;;;;6.82;1.65;;;22.00;50.60;;;;;;5072191;28;20048;-90
2022/06/14 12:15:09;;;;;;;4.90;1.70;;;22.10;50.50;;;;;;5029871;28;20067;-90
2022/06/14 12:17:51;;;;;;;4.28;1.40;;;22.00;50.40;;;;;;5030266;28;20053;-89
2022/06/14 12:20:20;;;;;;;7.78;1.60;;;22.10;50.30;;;;;;5029863;28;20464;-90
2022/06/14 12:23:35;;;;;;;5.85;1.48;;;22.10;50.30;;;;;;5030242;28;20041;-89
2022/06/14 12:29:06;;;;;;;9.13;1.90;;;22.10;50.10;;;;;;5029964;28;20148;-90
2022/06/14 12:31:35;;;;;;;4.03;1.27;;;22.20;50.10;;;;;;5030581;28;20049;-90
2022/06/14 12:34:24;;;;;;;5.90;1.70;;;22.20;50.00;;;;;;5013466;28;20056;-89
2022/06/14 12:37:15;;;;;;;4.88;1.33;;;22.30;49.80;;;;;;5030189;28;20101;-91
2022/06/14 12:39:59;;;;;;;5.28;1.67;;;22.30;49.80;;;;;;5031229;28;20041;-90
2022/06/14 12:42:29;;;;;;;4.60;1.55;;;22.40;49.60;;;;;;5029062;28;20406;-89
2022/06/14 12:45:18;;;;;;;5.93;1.80;;;22.40;49.50;;;;;;5029472;28;20045;-89
2022/06/14 12:48:01;;;;;;;6.40;1.60;;;22.40;49.40;;;;;;5029834;28;20517;-89
2022/06/14 12:50:37;;;;;;;4.57;1.52;;;22.50;49.20;;;;;;5029377;28;20092;-88
2022/06/14 12:53:17;;;;;;;4.55;1.58;;;22.50;49.10;;;;;;5057305;28;20061;-89
2022/06/14 12:55:52;;;;;;;4.63;1.27;;;22.60;49.00;;;;;;5069917;28;20047;-89
2022/06/14 12:58:57;;;;;;;5.57;1.50;;;22.70;48.90;;;;;;5054690;28;20051;-88
2022/06/14 13:01:36;;;;;;;;;;;22.70;48.80;;;;;;5056787;28;20558;-90
2022/06/14 13:04:13;;;;;;;6.75;1.50;;;22.80;48.70;;;;;;5069006;28;19927;-92
2022/06/14 13:06:55;;;;;;;10.00;2.38;;;22.80;48.60;;;;;;5052642;28;20063;-89
2022/06/14 13:09:46;;;;;;;4.43;1.70;;;22.80;48.50;;;;;;5071797;28;20098;-90
2022/06/14 13:12:38;;;;;;;6.93;1.63;;;22.90;48.30;;;;;;5071935;28;20088;-90
2022/06/14 13:15:21;;;;;;;7.43;2.08;;;22.90;48.30;;;;;;5067832;28;20074;-89
2022/06/14 13:17:49;;;;;;;;;;;23.00;48.10;;;;;;5067164;28;20082;-89
2022/06/14 13:20:31;;;;;;;5.55;1.55;;;23.10;48.10;;;;;;5068024;28;19943;-90
2022/06/14 13:23:19;;;;;;;6.38;1.60;;;23.10;48.00;;;;;;5069940;28;20468;-89
2022/06/14 13:26:11;;;;;;;4.85;1.40;;;23.10;47.90;;;;;;5064098;28;20065;-90
2022/06/14 13:29:20;;;;;;;6.55;1.73;;;23.20;47.90;;;;;;5055881;28;20642;-90
2022/06/14 13:32:00;;;;;;;7.85;1.95;;;23.20;47.90;;;;;;5055695;28;20049;-89
2022/06/14 13:34:33;;;;;;;4.07;1.35;;;23.30;47.80;;;;;;5069244;28;20052;-90
2022/06/14 13:37:21;;;;;;;6.22;1.52;;;23.30;47.70;;;;;;5069858;28;20048;-90
2022/06/14 13:40:23;;;;;;;5.45;1.50;;;23.40;47.60;;;;;;5068258;28;20102;-90
2022/06/14 13:43:14;;;;;;;5.10;1.40;;;23.40;47.50;;;;;;5061748;28;20523;-90
2022/06/14 13:45:59;;;;;;;4.65;1.45;;;23.40;47.40;;;;;;5067820;28;20097;-89
2022/06/14 13:48:26;;;;;;;4.85;1.30;;;23.50;47.30;;;;;;5070231;28;20080;-90
2022/06/14 13:51:17;;;;;;;6.57;1.77;;;23.60;47.30;;;;;;5067558;28;20049;-89
2022/06/14 13:53:55;;;;;;;5.70;1.30;;;23.60;47.20;;;;;;5063498;28;20490;-90
2022/06/14 13:56:50;;;;;;;3.53;1.10;;;23.60;47.10;;;;;;5070350;28;20196;-91
2022/06/14 13:59:24;;;;;;;5.28;1.40;;;23.70;47.10;;;;;;5069223;28;20479;-89
2022/06/14 14:02:27;;;;;;;6.25;1.50;;;23.70;47.00;;;;;;5068811;28;20048;-89
2022/06/14 14:05:02;;;;;;;4.50;1.33;;;23.80;47.00;;;;;;5064667;28;20493;-89
2022/06/14 14:07:35;;;;;;;4.53;1.70;;;23.80;46.90;;;;;;5069916;28;20091;-91
2022/06/14 14:10:41;;;;;;;5.30;1.60;;;23.90;46.80;;;;;;5074306;28;20483;-91
2022/06/14 14:13:41;;;;;;;4.80;1.40;;;23.90;46.70;;;;;;5071350;28;20356;-91